sensor_id;sensor_type;location;lat;lon;timestamp;temperature;humidity
43665;DHT22;29263;48.172;11.484;2023-08-06T00:01:44;15.10;99.90
43665;DHT22;29263;48.172;11.484;2023-08-06T00:04:10;15.10;99.90
43665;DHT22;29263;48.172;11.484;2023-08-06T00:06:38;15.10;99.90
43665;DHT22;29263;48.172;11.484;2023-08-06T00:09:04;15.10;99.90
43665;DHT22;29263;48.172;11.484;2023-08-06T00:11:37;15.20;99.90
43665;DHT22;29263;48.172;11.484;2023-08-06T00:14:03;15.20;99.90
43665;DHT22;29263;48.172;11.484;2023-08-06T00:16:32;15.10;99.90
43665;DHT22;29263;48.172;11.484;2023-08-06T00:18:58;15.10;99.90
43665;DHT22;29263;48.172;11.484;2023-08-06T00:21:29;15.10;99.90
43665;DHT22;29263;48.172;11.484;2023-08-06T00:23:55;15.10;99.90
43665;DHT22;29263;48.172;11.484;2023-08-06T00:26:21;15.10;99.90
43665;DHT22;29263;48.172;11.484;2023-08-06T00:28:46;15.10;99.90
43665;DHT22;29263;48.172;11.484;2023-08-06T00:31:14;15.00;99.90
43665;DHT22;29263;48.172;11.484;2023-08-06T00:33:43;15.00;99.90
43665;DHT22;29263;48.172;11.484;2023-08-06T00:36:09;14.90;99.90
43665;DHT22;29263;48.172;11.484;2023-08-06T00:38:35;14.80;99.90
43665;DHT22;29263;48.172;11.484;2023-08-06T00:41:01;14.70;99.90
43665;DHT22;29263;48.172;11.484;2023-08-06T00:46:32;14.60;99.90
43665;DHT22;29263;48.172;11.484;2023-08-06T00:49:02;14.50;99.90
43665;DHT22;29263;48.172;11.484;2023-08-06T00:51:29;14.50;99.90
43665;DHT22;29263;48.172;11.484;2023-08-06T00:53:55;14.40;99.90
43665;DHT22;29263;48.172;11.484;2023-08-06T00:56:21;14.50;99.90
43665;DHT22;29263;48.172;11.484;2023-08-06T01:01:55;14.40;99.90
43665;DHT22;29263;48.172;11.484;2023-08-06T01:04:21;14.40;99.90
43665;DHT22;29263;48.172;11.484;2023-08-06T01:07:20;14.40;99.90
43665;DHT22;29263;48.172;11.484;2023-08-06T01:10:23;14.40;99.90
43665;DHT22;29263;48.172;11.484;2023-08-06T01:15:43;14.40;99.90
43665;DHT22;29263;48.172;11.484;2023-08-06T01:18:12;14.40;99.90
43665;DHT22;29263;48.172;11.484;2023-08-06T01:20:38;14.30;99.90
43665;DHT22;29263;48.172;11.484;2023-08-06T01:23:03;14.30;99.90
43665;DHT22;29263;48.172;11.484;2023-08-06T01:29:15;14.20;99.90
43665;DHT22;29263;48.172;11.484;2023-08-06T01:31:44;14.20;99.90
43665;DHT22;29263;48.172;11.484;2023-08-06T01:34:19;14.20;99.90
43665;DHT22;29263;48.172;11.484;2023-08-06T01:36:46;14.20;99.90
43665;DHT22;29263;48.172;11.484;2023-08-06T01:39:12;14.20;99.90
43665;DHT22;29263;48.172;11.484;2023-08-06T01:41:38;14.20;99.90
43665;DHT22;29263;48.172;11.484;2023-08-06T01:44:07;14.20;99.90
43665;DHT22;29263;48.172;11.484;2023-08-06T01:46:42;14.20;99.90
43665;DHT22;29263;48.172;11.484;2023-08-06T01:49:11;14.20;99.90
43665;DHT22;29263;48.172;11.484;2023-08-06T01:51:37;14.20;99.90
43665;DHT22;29263;48.172;11.484;2023-08-06T01:54:03;14.20;99.90
43665;DHT22;29263;48.172;11.484;2023-08-06T01:56:28;14.20;99.90
43665;DHT22;29263;48.172;11.484;2023-08-06T01:58:54;14.10;99.90
43665;DHT22;29263;48.172;11.484;2023-08-06T02:01:20;14.10;99.90
43665;DHT22;29263;48.172;11.484;2023-08-06T02:03:45;14.20;99.90
43665;DHT22;29263;48.172;11.484;2023-08-06T02:06:11;14.10;99.90
43665;DHT22;29263;48.172;11.484;2023-08-06T02:08:37;14.10;99.90
43665;DHT22;29263;48.172;11.484;2023-08-06T02:11:02;14.20;99.90
43665;DHT22;29263;48.172;11.484;2023-08-06T02:13:28;14.20;99.90
43665;DHT22;29263;48.172;11.484;2023-08-06T02:15:54;14.20;99.90
43665;DHT22;29263;48.172;11.484;2023-08-06T02:18:19;14.10;99.90
43665;DHT22;29263;48.172;11.484;2023-08-06T02:20:55;14.10;99.90
43665;DHT22;29263;48.172;11.484;2023-08-06T02:23:22;14.10;99.90
43665;DHT22;29263;48.172;11.484;2023-08-06T02:25:47;14.10;99.90
43665;DHT22;29263;48.172;11.484;2023-08-06T02:28:13;14.10;99.90
43665;DHT22;29263;48.172;11.484;2023-08-06T02:30:38;14.10;99.90
43665;DHT22;29263;48.172;11.484;2023-08-06T02:33:04;14.10;99.90
43665;DHT22;29263;48.172;11.484;2023-08-06T02:35:30;14.00;99.90
43665;DHT22;29263;48.172;11.484;2023-08-06T02:37:55;14.00;99.90
43665;DHT22;29263;48.172;11.484;2023-08-06T02:40:21;14.00;99.90
43665;DHT22;29263;48.172;11.484;2023-08-06T02:42:47;14.00;99.90
43665;DHT22;29263;48.172;11.484;2023-08-06T02:45:12;14.00;99.90
43665;DHT22;29263;48.172;11.484;2023-08-06T02:47:38;14.00;99.90
43665;DHT22;29263;48.172;11.484;2023-08-06T02:50:04;13.90;99.90
43665;DHT22;29263;48.172;11.484;2023-08-06T02:52:30;13.90;99.90
43665;DHT22;29263;48.172;11.484;2023-08-06T02:54:55;13.90;99.90
43665;DHT22;29263;48.172;11.484;2023-08-06T02:57:21;13.90;99.90
43665;DHT22;29263;48.172;11.484;2023-08-06T02:59:47;13.90;99.90
43665;DHT22;29263;48.172;11.484;2023-08-06T03:02:13;13.90;99.90
43665;DHT22;29263;48.172;11.484;2023-08-06T03:04:38;13.90;99.90
43665;DHT22;29263;48.172;11.484;2023-08-06T03:07:04;13.90;99.90
43665;DHT22;29263;48.172;11.484;2023-08-06T03:09:30;13.80;99.90
43665;DHT22;29263;48.172;11.484;2023-08-06T03:11:55;13.80;99.90
43665;DHT22;29263;48.172;11.484;2023-08-06T03:14:21;13.80;99.90
43665;DHT22;29263;48.172;11.484;2023-08-06T03:16:46;13.80;99.90
43665;DHT22;29263;48.172;11.484;2023-08-06T03:19:12;13.80;99.90
43665;DHT22;29263;48.172;11.484;2023-08-06T03:21:38;13.80;99.90
43665;DHT22;29263;48.172;11.484;2023-08-06T03:24:03;13.70;99.90
43665;DHT22;29263;48.172;11.484;2023-08-06T03:26:29;13.70;99.90
43665;DHT22;29263;48.172;11.484;2023-08-06T03:28:55;13.70;99.90
43665;DHT22;29263;48.172;11.484;2023-08-06T03:31:20;13.70;99.90
43665;DHT22;29263;48.172;11.484;2023-08-06T03:33:46;13.70;99.90
43665;DHT22;29263;48.172;11.484;2023-08-06T03:36:11;13.70;99.90
43665;DHT22;29263;48.172;11.484;2023-08-06T03:38:37;13.60;99.90
43665;DHT22;29263;48.172;11.484;2023-08-06T03:41:03;13.60;99.90
43665;DHT22;29263;48.172;11.484;2023-08-06T03:43:28;13.60;99.90
43665;DHT22;29263;48.172;11.484;2023-08-06T03:45:54;13.60;99.90
43665;DHT22;29263;48.172;11.484;2023-08-06T03:48:19;13.60;99.90
43665;DHT22;29263;48.172;11.484;2023-08-06T03:50:45;13.50;99.90
43665;DHT22;29263;48.172;11.484;2023-08-06T03:53:11;13.50;99.90
43665;DHT22;29263;48.172;11.484;2023-08-06T03:55:36;13.50;99.90
43665;DHT22;29263;48.172;11.484;2023-08-06T03:58:02;13.50;99.90
43665;DHT22;29263;48.172;11.484;2023-08-06T04:00:28;13.50;99.90
43665;DHT22;29263;48.172;11.484;2023-08-06T04:02:53;13.40;99.90
43665;DHT22;29263;48.172;11.484;2023-08-06T04:05:19;13.40;99.90
43665;DHT22;29263;48.172;11.484;2023-08-06T04:07:44;13.40;99.90
43665;DHT22;29263;48.172;11.484;2023-08-06T04:10:11;13.40;99.90
43665;DHT22;29263;48.172;11.484;2023-08-06T04:12:36;13.40;99.90
43665;DHT22;29263;48.172;11.484;2023-08-06T04:15:04;13.40;99.90
43665;DHT22;29263;48.172;11.484;2023-08-06T04:17:30;13.40;99.90
43665;DHT22;29263;48.172;11.484;2023-08-06T04:19:56;13.50;99.90
43665;DHT22;29263;48.172;11.484;2023-08-06T04:22:23;13.40;99.90
43665;DHT22;29263;48.172;11.484;2023-08-06T04:24:49;13.50;99.90
43665;DHT22;29263;48.172;11.484;2023-08-06T04:27:16;13.50;99.90
43665;DHT22;29263;48.172;11.484;2023-08-06T04:29:42;13.50;99.90
43665;DHT22;29263;48.172;11.484;2023-08-06T04:32:09;13.50;99.90
43665;DHT22;29263;48.172;11.484;2023-08-06T04:34:36;13.50;99.90
43665;DHT22;29263;48.172;11.484;2023-08-06T04:37:02;13.50;99.90
43665;DHT22;29263;48.172;11.484;2023-08-06T04:39:28;13.60;99.90
43665;DHT22;29263;48.172;11.484;2023-08-06T04:41:58;13.60;99.90
43665;DHT22;29263;48.172;11.484;2023-08-06T04:44:24;13.60;99.90
43665;DHT22;29263;48.172;11.484;2023-08-06T04:46:49;13.60;99.90
43665;DHT22;29263;48.172;11.484;2023-08-06T04:49:15;13.60;99.90
43665;DHT22;29263;48.172;11.484;2023-08-06T04:51:41;13.60;99.90
43665;DHT22;29263;48.172;11.484;2023-08-06T04:54:06;13.60;99.90
43665;DHT22;29263;48.172;11.484;2023-08-06T04:56:32;13.60;99.90
43665;DHT22;29263;48.172;11.484;2023-08-06T04:58:59;13.70;99.90
43665;DHT22;29263;48.172;11.484;2023-08-06T05:01:25;13.70;99.90
43665;DHT22;29263;48.172;11.484;2023-08-06T05:03:50;13.60;99.90
43665;DHT22;29263;48.172;11.484;2023-08-06T05:06:16;13.60;99.90
43665;DHT22;29263;48.172;11.484;2023-08-06T05:08:42;13.70;99.90
43665;DHT22;29263;48.172;11.484;2023-08-06T05:11:07;13.70;99.90
43665;DHT22;29263;48.172;11.484;2023-08-06T05:13:33;13.70;99.90
43665;DHT22;29263;48.172;11.484;2023-08-06T05:15:58;13.70;99.90
43665;DHT22;29263;48.172;11.484;2023-08-06T05:18:24;13.70;99.90
43665;DHT22;29263;48.172;11.484;2023-08-06T05:20:50;13.60;99.90
43665;DHT22;29263;48.172;11.484;2023-08-06T05:23:15;13.70;99.90
43665;DHT22;29263;48.172;11.484;2023-08-06T05:25:42;13.70;99.90
43665;DHT22;29263;48.172;11.484;2023-08-06T05:28:07;13.70;99.90
43665;DHT22;29263;48.172;11.484;2023-08-06T05:30:33;13.70;99.90
43665;DHT22;29263;48.172;11.484;2023-08-06T05:32:59;13.70;99.90
43665;DHT22;29263;48.172;11.484;2023-08-06T05:35:24;13.70;99.90
43665;DHT22;29263;48.172;11.484;2023-08-06T05:37:50;13.70;99.90
43665;DHT22;29263;48.172;11.484;2023-08-06T05:40:16;13.80;99.90
43665;DHT22;29263;48.172;11.484;2023-08-06T05:42:41;13.70;99.90
43665;DHT22;29263;48.172;11.484;2023-08-06T05:45:08;13.80;99.90
43665;DHT22;29263;48.172;11.484;2023-08-06T05:47:33;13.80;99.90
43665;DHT22;29263;48.172;11.484;2023-08-06T05:49:59;13.80;99.90
43665;DHT22;29263;48.172;11.484;2023-08-06T05:52:25;13.90;99.90
43665;DHT22;29263;48.172;11.484;2023-08-06T05:54:50;13.90;99.90
43665;DHT22;29263;48.172;11.484;2023-08-06T05:57:17;14.00;99.90
43665;DHT22;29263;48.172;11.484;2023-08-06T05:59:43;14.00;99.90
43665;DHT22;29263;48.172;11.484;2023-08-06T06:02:09;14.00;99.90
43665;DHT22;29263;48.172;11.484;2023-08-06T06:04:34;14.00;99.90
43665;DHT22;29263;48.172;11.484;2023-08-06T06:07:00;14.10;99.90
43665;DHT22;29263;48.172;11.484;2023-08-06T06:09:26;14.10;99.90
43665;DHT22;29263;48.172;11.484;2023-08-06T06:11:51;14.20;99.90
43665;DHT22;29263;48.172;11.484;2023-08-06T06:14:18;14.30;99.90
43665;DHT22;29263;48.172;11.484;2023-08-06T06:16:44;14.30;99.90
43665;DHT22;29263;48.172;11.484;2023-08-06T06:19:13;14.50;99.90
43665;DHT22;29263;48.172;11.484;2023-08-06T06:21:45;14.50;99.90
43665;DHT22;29263;48.172;11.484;2023-08-06T06:25:05;14.60;99.90
43665;DHT22;29263;48.172;11.484;2023-08-06T06:27:33;14.60;99.90
43665;DHT22;29263;48.172;11.484;2023-08-06T06:29:59;14.60;99.90
43665;DHT22;29263;48.172;11.484;2023-08-06T06:32:25;14.60;99.90
43665;DHT22;29263;48.172;11.484;2023-08-06T06:34:51;14.70;99.90
43665;DHT22;29263;48.172;11.484;2023-08-06T06:37:17;14.70;99.90
43665;DHT22;29263;48.172;11.484;2023-08-06T06:39:45;14.80;99.90
43665;DHT22;29263;48.172;11.484;2023-08-06T06:42:11;14.80;99.90
43665;DHT22;29263;48.172;11.484;2023-08-06T06:47:40;14.80;99.90
43665;DHT22;29263;48.172;11.484;2023-08-06T06:50:07;14.80;99.90
43665;DHT22;29263;48.172;11.484;2023-08-06T06:52:35;14.80;99.90
43665;DHT22;29263;48.172;11.484;2023-08-06T06:55:01;14.80;99.90
43665;DHT22;29263;48.172;11.484;2023-08-06T06:57:27;14.90;99.90
43665;DHT22;29263;48.172;11.484;2023-08-06T06:59:53;15.00;99.90
43665;DHT22;29263;48.172;11.484;2023-08-06T07:02:23;15.10;99.90
43665;DHT22;29263;48.172;11.484;2023-08-06T07:04:55;15.40;99.90
43665;DHT22;29263;48.172;11.484;2023-08-06T07:07:21;15.60;99.90
43665;DHT22;29263;48.172;11.484;2023-08-06T07:09:49;15.80;99.90
43665;DHT22;29263;48.172;11.484;2023-08-06T07:12:18;15.80;99.90
43665;DHT22;29263;48.172;11.484;2023-08-06T07:14:43;15.80;99.90
43665;DHT22;29263;48.172;11.484;2023-08-06T07:17:09;15.80;99.90
43665;DHT22;29263;48.172;11.484;2023-08-06T07:19:50;15.80;99.90
43665;DHT22;29263;48.172;11.484;2023-08-06T07:25:09;15.70;99.90
43665;DHT22;29263;48.172;11.484;2023-08-06T07:27:41;15.60;99.90
43665;DHT22;29263;48.172;11.484;2023-08-06T07:30:08;15.40;99.90
43665;DHT22;29263;48.172;11.484;2023-08-06T07:32:34;15.40;99.90
43665;DHT22;29263;48.172;11.484;2023-08-06T07:34:59;15.20;99.90
43665;DHT22;29263;48.172;11.484;2023-08-06T07:37:29;15.10;99.90
43665;DHT22;29263;48.172;11.484;2023-08-06T07:39:57;14.90;99.90
43665;DHT22;29263;48.172;11.484;2023-08-06T07:42:39;14.80;99.90
43665;DHT22;29263;48.172;11.484;2023-08-06T07:45:09;14.80;99.90
43665;DHT22;29263;48.172;11.484;2023-08-06T07:47:46;14.80;99.90
43665;DHT22;29263;48.172;11.484;2023-08-06T07:50:15;14.70;99.90
43665;DHT22;29263;48.172;11.484;2023-08-06T07:52:41;14.80;99.90
43665;DHT22;29263;48.172;11.484;2023-08-06T07:55:07;14.80;99.90
43665;DHT22;29263;48.172;11.484;2023-08-06T07:57:33;14.80;99.90
43665;DHT22;29263;48.172;11.484;2023-08-06T08:00:04;14.90;99.90
43665;DHT22;29263;48.172;11.484;2023-08-06T08:02:30;15.00;99.90
43665;DHT22;29263;48.172;11.484;2023-08-06T08:05:01;15.00;99.90
43665;DHT22;29263;48.172;11.484;2023-08-06T08:07:33;15.20;99.90
43665;DHT22;29263;48.172;11.484;2023-08-06T08:09:58;15.30;99.90
43665;DHT22;29263;48.172;11.484;2023-08-06T08:12:24;15.40;99.90
43665;DHT22;29263;48.172;11.484;2023-08-06T08:14:50;15.60;99.90
43665;DHT22;29263;48.172;11.484;2023-08-06T08:17:16;15.80;99.90
43665;DHT22;29263;48.172;11.484;2023-08-06T08:19:42;16.00;99.90
43665;DHT22;29263;48.172;11.484;2023-08-06T08:22:08;16.10;99.90
43665;DHT22;29263;48.172;11.484;2023-08-06T08:24:34;16.30;99.90
43665;DHT22;29263;48.172;11.484;2023-08-06T08:26:59;16.30;99.90
43665;DHT22;29263;48.172;11.484;2023-08-06T08:29:25;16.20;99.90
43665;DHT22;29263;48.172;11.484;2023-08-06T08:31:51;16.20;99.90
43665;DHT22;29263;48.172;11.484;2023-08-06T08:40:32;16.00;99.90
43665;DHT22;29263;48.172;11.484;2023-08-06T08:43:00;16.00;99.90
43665;DHT22;29263;48.172;11.484;2023-08-06T08:45:29;16.10;99.90
43665;DHT22;29263;48.172;11.484;2023-08-06T08:47:55;16.10;99.90
43665;DHT22;29263;48.172;11.484;2023-08-06T08:50:21;16.10;99.90
43665;DHT22;29263;48.172;11.484;2023-08-06T08:52:47;16.20;99.90
43665;DHT22;29263;48.172;11.484;2023-08-06T08:55:16;16.20;99.90
43665;DHT22;29263;48.172;11.484;2023-08-06T08:57:42;16.30;99.90
43665;DHT22;29263;48.172;11.484;2023-08-06T09:00:39;16.30;99.90
43665;DHT22;29263;48.172;11.484;2023-08-06T09:03:09;16.30;99.90
43665;DHT22;29263;48.172;11.484;2023-08-06T09:05:36;16.20;99.90
43665;DHT22;29263;48.172;11.484;2023-08-06T09:08:17;16.20;99.90
43665;DHT22;29263;48.172;11.484;2023-08-06T09:10:43;16.20;99.90
43665;DHT22;29263;48.172;11.484;2023-08-06T09:13:10;16.00;99.90
43665;DHT22;29263;48.172;11.484;2023-08-06T09:15:38;15.90;99.90
43665;DHT22;29263;48.172;11.484;2023-08-06T09:18:24;15.80;99.90
43665;DHT22;29263;48.172;11.484;2023-08-06T09:20:53;15.90;99.90
43665;DHT22;29263;48.172;11.484;2023-08-06T09:23:28;15.90;99.90
43665;DHT22;29263;48.172;11.484;2023-08-06T09:26:00;15.90;99.90
43665;DHT22;29263;48.172;11.484;2023-08-06T09:28:39;15.90;99.90
43665;DHT22;29263;48.172;11.484;2023-08-06T09:31:08;15.90;99.90
43665;DHT22;29263;48.172;11.484;2023-08-06T09:33:36;16.00;99.90
43665;DHT22;29263;48.172;11.484;2023-08-06T09:36:12;16.00;99.90
43665;DHT22;29263;48.172;11.484;2023-08-06T09:38:43;16.00;99.90
43665;DHT22;29263;48.172;11.484;2023-08-06T09:41:09;16.10;99.90
43665;DHT22;29263;48.172;11.484;2023-08-06T09:43:44;16.10;99.90
43665;DHT22;29263;48.172;11.484;2023-08-06T09:46:18;16.00;99.90
43665;DHT22;29263;48.172;11.484;2023-08-06T09:48:46;16.00;99.90
43665;DHT22;29263;48.172;11.484;2023-08-06T09:51:15;16.00;99.90
43665;DHT22;29263;48.172;11.484;2023-08-06T09:53:42;15.90;99.90
43665;DHT22;29263;48.172;11.484;2023-08-06T09:56:09;16.00;99.90
43665;DHT22;29263;48.172;11.484;2023-08-06T09:58:37;16.00;99.90
43665;DHT22;29263;48.172;11.484;2023-08-06T10:01:04;16.00;99.90
43665;DHT22;29263;48.172;11.484;2023-08-06T10:03:33;16.10;99.90
43665;DHT22;29263;48.172;11.484;2023-08-06T10:06:49;16.10;99.90
43665;DHT22;29263;48.172;11.484;2023-08-06T10:09:18;16.10;99.90
43665;DHT22;29263;48.172;11.484;2023-08-06T10:11:49;16.10;99.90
43665;DHT22;29263;48.172;11.484;2023-08-06T10:14:26;16.10;99.90
43665;DHT22;29263;48.172;11.484;2023-08-06T10:16:58;16.20;99.90
43665;DHT22;29263;48.172;11.484;2023-08-06T10:19:25;16.20;99.90
43665;DHT22;29263;48.172;11.484;2023-08-06T10:22:15;16.40;99.90
43665;DHT22;29263;48.172;11.484;2023-08-06T10:24:58;16.60;99.90
43665;DHT22;29263;48.172;11.484;2023-08-06T10:30:30;16.90;99.90
43665;DHT22;29263;48.172;11.484;2023-08-06T10:33:01;16.80;99.90
43665;DHT22;29263;48.172;11.484;2023-08-06T10:38:47;16.50;99.90
43665;DHT22;29263;48.172;11.484;2023-08-06T10:41:27;16.40;99.90
43665;DHT22;29263;48.172;11.484;2023-08-06T10:44:05;16.40;99.90
43665;DHT22;29263;48.172;11.484;2023-08-06T10:46:34;16.40;99.90
43665;DHT22;29263;48.172;11.484;2023-08-06T10:48:59;16.50;99.90
43665;DHT22;29263;48.172;11.484;2023-08-06T10:51:26;16.70;99.90
43665;DHT22;29263;48.172;11.484;2023-08-06T10:53:55;16.80;99.90
43665;DHT22;29263;48.172;11.484;2023-08-06T10:56:25;16.90;99.90
43665;DHT22;29263;48.172;11.484;2023-08-06T10:58:56;17.00;98.80
43665;DHT22;29263;48.172;11.484;2023-08-06T11:01:35;17.10;98.10
43665;DHT22;29263;48.172;11.484;2023-08-06T11:04:02;17.10;98.60
43665;DHT22;29263;48.172;11.484;2023-08-06T11:06:30;17.00;98.90
43665;DHT22;29263;48.172;11.484;2023-08-06T11:08:56;17.00;99.30
43665;DHT22;29263;48.172;11.484;2023-08-06T11:11:23;17.00;99.90
43665;DHT22;29263;48.172;11.484;2023-08-06T11:13:50;16.90;99.50
43665;DHT22;29263;48.172;11.484;2023-08-06T11:16:24;16.90;99.10
43665;DHT22;29263;48.172;11.484;2023-08-06T11:18:52;16.90;99.30
43665;DHT22;29263;48.172;11.484;2023-08-06T11:21:22;16.90;99.90
43665;DHT22;29263;48.172;11.484;2023-08-06T11:23:50;16.80;99.90
43665;DHT22;29263;48.172;11.484;2023-08-06T11:26:20;16.80;99.50
43665;DHT22;29263;48.172;11.484;2023-08-06T11:28:55;16.80;98.90
43665;DHT22;29263;48.172;11.484;2023-08-06T11:31:26;16.60;98.70
43665;DHT22;29263;48.172;11.484;2023-08-06T11:33:52;16.70;99.50
43665;DHT22;29263;48.172;11.484;2023-08-06T11:36:31;16.70;99.90
43665;DHT22;29263;48.172;11.484;2023-08-06T11:39:03;16.80;99.70
43665;DHT22;29263;48.172;11.484;2023-08-06T11:41:32;16.90;99.90
43665;DHT22;29263;48.172;11.484;2023-08-06T11:43:59;16.90;99.90
43665;DHT22;29263;48.172;11.484;2023-08-06T11:46:57;16.80;99.70
43665;DHT22;29263;48.172;11.484;2023-08-06T11:49:49;16.80;99.50
43665;DHT22;29263;48.172;11.484;2023-08-06T11:52:22;16.70;99.70
43665;DHT22;29263;48.172;11.484;2023-08-06T11:57:30;17.00;99.50
43665;DHT22;29263;48.172;11.484;2023-08-06T12:00:08;17.10;99.30
43665;DHT22;29263;48.172;11.484;2023-08-06T12:02:35;17.00;99.40
43665;DHT22;29263;48.172;11.484;2023-08-06T12:07:43;16.80;99.90
43665;DHT22;29263;48.172;11.484;2023-08-06T12:10:13;16.70;99.90
43665;DHT22;29263;48.172;11.484;2023-08-06T12:12:39;16.80;99.90
43665;DHT22;29263;48.172;11.484;2023-08-06T12:15:06;16.80;99.90
43665;DHT22;29263;48.172;11.484;2023-08-06T12:17:33;17.00;99.80
43665;DHT22;29263;48.172;11.484;2023-08-06T12:19:59;17.30;99.50
43665;DHT22;29263;48.172;11.484;2023-08-06T12:22:25;17.30;99.90
43665;DHT22;29263;48.172;11.484;2023-08-06T12:24:50;17.20;99.90
43665;DHT22;29263;48.172;11.484;2023-08-06T12:27:16;17.20;99.90
43665;DHT22;29263;48.172;11.484;2023-08-06T12:29:44;17.00;99.80
43665;DHT22;29263;48.172;11.484;2023-08-06T12:32:10;16.90;99.90
43665;DHT22;29263;48.172;11.484;2023-08-06T12:34:38;16.90;99.90
43665;DHT22;29263;48.172;11.484;2023-08-06T12:37:03;16.90;99.90
43665;DHT22;29263;48.172;11.484;2023-08-06T12:39:29;16.80;99.90
43665;DHT22;29263;48.172;11.484;2023-08-06T12:41:56;16.60;99.90
43665;DHT22;29263;48.172;11.484;2023-08-06T12:44:23;16.50;99.90
43665;DHT22;29263;48.172;11.484;2023-08-06T12:46:51;16.30;99.90
43665;DHT22;29263;48.172;11.484;2023-08-06T12:49:22;16.10;99.90
43665;DHT22;29263;48.172;11.484;2023-08-06T12:51:57;16.00;99.90
43665;DHT22;29263;48.172;11.484;2023-08-06T12:54:25;15.90;99.90
43665;DHT22;29263;48.172;11.484;2023-08-06T12:56:51;15.90;99.90
43665;DHT22;29263;48.172;11.484;2023-08-06T12:59:26;16.10;99.90
43665;DHT22;29263;48.172;11.484;2023-08-06T13:01:54;16.30;99.90
43665;DHT22;29263;48.172;11.484;2023-08-06T13:04:29;16.40;99.90
43665;DHT22;29263;48.172;11.484;2023-08-06T13:06:55;16.50;99.90
43665;DHT22;29263;48.172;11.484;2023-08-06T13:09:42;16.70;99.90
43665;DHT22;29263;48.172;11.484;2023-08-06T13:12:08;16.90;99.90
43665;DHT22;29263;48.172;11.484;2023-08-06T13:14:39;17.00;99.90
43665;DHT22;29263;48.172;11.484;2023-08-06T13:17:05;17.20;99.90
43665;DHT22;29263;48.172;11.484;2023-08-06T13:19:32;17.20;99.90
43665;DHT22;29263;48.172;11.484;2023-08-06T13:22:02;16.90;99.90
43665;DHT22;29263;48.172;11.484;2023-08-06T13:24:51;16.70;99.90
43665;DHT22;29263;48.172;11.484;2023-08-06T13:27:17;16.30;99.90
43665;DHT22;29263;48.172;11.484;2023-08-06T13:29:43;16.20;99.90
43665;DHT22;29263;48.172;11.484;2023-08-06T13:32:09;16.10;99.90
43665;DHT22;29263;48.172;11.484;2023-08-06T13:34:35;16.00;99.90
43665;DHT22;29263;48.172;11.484;2023-08-06T13:37:33;16.10;99.90
43665;DHT22;29263;48.172;11.484;2023-08-06T13:40:02;16.20;99.90
43665;DHT22;29263;48.172;11.484;2023-08-06T13:42:34;16.30;99.90
43665;DHT22;29263;48.172;11.484;2023-08-06T13:45:00;16.30;99.90
43665;DHT22;29263;48.172;11.484;2023-08-06T13:47:31;16.30;99.90
43665;DHT22;29263;48.172;11.484;2023-08-06T13:49:57;16.20;99.90
43665;DHT22;29263;48.172;11.484;2023-08-06T13:52:32;16.10;99.90
43665;DHT22;29263;48.172;11.484;2023-08-06T13:55:07;16.00;99.90
43665;DHT22;29263;48.172;11.484;2023-08-06T13:57:41;15.90;99.90
43665;DHT22;29263;48.172;11.484;2023-08-06T14:00:13;15.80;99.90
43665;DHT22;29263;48.172;11.484;2023-08-06T14:03:08;15.70;99.90
43665;DHT22;29263;48.172;11.484;2023-08-06T14:05:42;15.70;99.90
43665;DHT22;29263;48.172;11.484;2023-08-06T14:08:08;15.70;99.90
43665;DHT22;29263;48.172;11.484;2023-08-06T14:10:43;15.80;99.90
43665;DHT22;29263;48.172;11.484;2023-08-06T14:13:09;15.80;99.90
43665;DHT22;29263;48.172;11.484;2023-08-06T14:15:46;15.80;99.90
43665;DHT22;29263;48.172;11.484;2023-08-06T14:18:15;15.90;99.90
43665;DHT22;29263;48.172;11.484;2023-08-06T14:20:44;15.80;99.90
43665;DHT22;29263;48.172;11.484;2023-08-06T14:23:11;15.80;99.90
43665;DHT22;29263;48.172;11.484;2023-08-06T14:25:38;15.80;99.90
43665;DHT22;29263;48.172;11.484;2023-08-06T14:28:04;15.70;99.90
43665;DHT22;29263;48.172;11.484;2023-08-06T14:33:15;15.50;99.90
43665;DHT22;29263;48.172;11.484;2023-08-06T14:35:43;15.40;99.90
43665;DHT22;29263;48.172;11.484;2023-08-06T14:38:12;15.20;99.90
43665;DHT22;29263;48.172;11.484;2023-08-06T14:40:38;15.10;99.90
43665;DHT22;29263;48.172;11.484;2023-08-06T14:43:07;15.00;99.90
43665;DHT22;29263;48.172;11.484;2023-08-06T14:45:33;14.90;99.90
43665;DHT22;29263;48.172;11.484;2023-08-06T14:47:59;14.80;99.90
43665;DHT22;29263;48.172;11.484;2023-08-06T14:50:24;14.70;99.90
43665;DHT22;29263;48.172;11.484;2023-08-06T14:52:57;14.70;99.90
43665;DHT22;29263;48.172;11.484;2023-08-06T14:55:28;14.70;99.90
43665;DHT22;29263;48.172;11.484;2023-08-06T14:57:54;14.70;99.90
43665;DHT22;29263;48.172;11.484;2023-08-06T15:00:23;14.70;99.90
43665;DHT22;29263;48.172;11.484;2023-08-06T15:02:49;14.60;99.90
43665;DHT22;29263;48.172;11.484;2023-08-06T15:05:15;14.60;99.90
43665;DHT22;29263;48.172;11.484;2023-08-06T15:07:41;14.60;99.90
43665;DHT22;29263;48.172;11.484;2023-08-06T15:10:07;14.70;99.90
43665;DHT22;29263;48.172;11.484;2023-08-06T15:12:33;14.70;99.90
43665;DHT22;29263;48.172;11.484;2023-08-06T15:14:59;14.70;99.90
43665;DHT22;29263;48.172;11.484;2023-08-06T15:17:26;14.70;99.90
43665;DHT22;29263;48.172;11.484;2023-08-06T15:19:56;14.60;99.90
43665;DHT22;29263;48.172;11.484;2023-08-06T15:22:23;14.60;99.90
43665;DHT22;29263;48.172;11.484;2023-08-06T15:24:48;14.60;99.90
43665;DHT22;29263;48.172;11.484;2023-08-06T15:27:14;14.60;99.90
43665;DHT22;29263;48.172;11.484;2023-08-06T15:29:41;14.70;99.90
43665;DHT22;29263;48.172;11.484;2023-08-06T15:32:08;14.60;99.90
43665;DHT22;29263;48.172;11.484;2023-08-06T15:34:38;14.70;99.90
43665;DHT22;29263;48.172;11.484;2023-08-06T15:37:05;14.60;99.90
43665;DHT22;29263;48.172;11.484;2023-08-06T15:39:31;14.50;99.90
43665;DHT22;29263;48.172;11.484;2023-08-06T15:41:57;14.50;99.90
43665;DHT22;29263;48.172;11.484;2023-08-06T15:44:22;14.30;99.90
43665;DHT22;29263;48.172;11.484;2023-08-06T15:46:48;14.30;99.90
43665;DHT22;29263;48.172;11.484;2023-08-06T15:49:14;14.20;99.90
43665;DHT22;29263;48.172;11.484;2023-08-06T15:51:40;14.10;99.90
43665;DHT22;29263;48.172;11.484;2023-08-06T15:54:06;14.00;99.90
43665;DHT22;29263;48.172;11.484;2023-08-06T15:56:32;14.00;99.90
43665;DHT22;29263;48.172;11.484;2023-08-06T15:59:20;13.80;99.90
43665;DHT22;29263;48.172;11.484;2023-08-06T16:01:44;13.70;99.90
43665;DHT22;29263;48.172;11.484;2023-08-06T16:04:09;13.70;99.90